createdAt,value
2022-12-13T00:02:20.286Z,77.79
2022-12-13T00:04:50.032Z,77.91
2022-12-13T00:07:19.765Z,77.91
2022-12-13T00:09:49.515Z,77.82
2022-12-13T00:12:19.267Z,77.14
2022-12-13T00:14:49.025Z,76.69
2022-12-13T00:17:18.750Z,76.69
2022-12-13T00:19:49.214Z,77.81
2022-12-13T00:22:19.218Z,77.45
2022-12-13T00:24:48.971Z,77.45
2022-12-13T00:27:18.712Z,77.71
2022-12-13T00:29:49.415Z,78.41
2022-12-13T00:32:19.081Z,78.37
2022-12-13T00:34:48.842Z,78.05
2022-12-13T00:37:18.586Z,77.13
2022-12-13T00:39:48.630Z,78.05
2022-12-13T00:42:18.130Z,77.69
2022-12-13T00:44:47.873Z,77.18
2022-12-13T00:47:18.913Z,77.49
2022-12-13T00:49:48.653Z,77.29
2022-12-13T00:52:18.090Z,78.53
2022-12-13T00:54:47.839Z,78.11
2022-12-13T00:57:17.573Z,78.11
2022-12-13T00:59:47.995Z,78.33
2022-12-13T01:02:17.514Z,78.18
2022-12-13T01:04:49.029Z,77.82
2022-12-13T01:07:18.767Z,77.35
2022-12-13T01:09:48.506Z,77.85
2022-12-13T01:12:18.321Z,77.88
2022-12-13T01:14:53.062Z,77.88
2022-12-13T01:17:19.575Z,77.63
2022-12-13T01:19:50.578Z,77.27
2022-12-13T01:22:20.402Z,77.27
2022-12-13T01:24:50.199Z,77.46
2022-12-13T01:27:19.938Z,77.58
2022-12-13T01:29:49.672Z,77.79
2022-12-13T01:32:19.413Z,76.66
2022-12-13T01:34:49.462Z,76.66
2022-12-13T01:37:20.370Z,76.59
2022-12-13T01:39:51.812Z,77.27
2022-12-13T01:42:23.205Z,77.73
2022-12-13T01:45:02.498Z,76.78
2022-12-13T01:47:35.370Z,76.91
2022-12-13T01:50:09.723Z,77.93
2022-12-13T01:52:40.596Z,77.42
2022-12-13T01:55:12.846Z,77.57
2022-12-13T01:57:45.889Z,77.70
2022-12-13T02:00:16.769Z,77.78
2022-12-13T02:02:48.452Z,77.42
2022-12-13T02:05:29.672Z,77.71
2022-12-13T02:08:01.058Z,78.24
2022-12-13T02:10:31.956Z,77.13
2022-12-13T02:13:01.704Z,78.14
2022-12-13T02:15:36.931Z,77.88
2022-12-13T02:18:23.132Z,76.86
2022-12-13T02:21:15.478Z,78.11
2022-12-13T02:24:08.766Z,78.11
2022-12-13T02:26:43.158Z,77.89
2022-12-13T02:29:30.540Z,77.72
2022-12-13T02:32:07.537Z,77.80
2022-12-13T02:34:52.125Z,77.97
2022-12-13T02:37:25.062Z,78.04
2022-12-13T02:40:03.752Z,77.70
2022-12-13T02:42:36.556Z,77.76
2022-12-13T02:45:20.673Z,77.36
2022-12-13T02:47:50.098Z,77.28
2022-12-13T02:50:22.287Z,77.70
2022-12-13T02:52:53.165Z,78.13
2022-12-13T02:55:27.915Z,77.57
2022-12-13T02:57:54.505Z,77.82
2022-12-13T03:00:32.641Z,77.58
2022-12-13T03:03:23.202Z,77.88
2022-12-13T03:06:16.580Z,77.59
2022-12-13T03:08:52.449Z,77.43
2022-12-13T03:11:24.854Z,77.66
2022-12-13T03:14:00.511Z,77.11
2022-12-13T03:16:36.633Z,77.82
2022-12-13T03:19:09.233Z,77.65
2022-12-13T03:21:47.339Z,77.18
2022-12-13T03:24:13.394Z,77.02
2022-12-13T03:26:43.211Z,77.17
2022-12-13T03:29:13.125Z,76.88
2022-12-13T03:31:45.081Z,76.84
2022-12-13T03:34:14.846Z,76.76
2022-12-13T03:36:46.648Z,77.20
2022-12-13T03:39:16.692Z,77.46
2022-12-13T03:41:46.608Z,77.36
2022-12-13T03:44:16.366Z,77.45
2022-12-13T03:46:46.723Z,77.45
2022-12-13T03:49:17.496Z,76.96
2022-12-13T03:51:47.796Z,76.96
2022-12-13T03:54:19.109Z,76.92
2022-12-13T03:56:48.840Z,76.73
2022-12-13T03:59:18.702Z,76.26
2022-12-13T04:01:48.581Z,76.58
2022-12-13T04:04:18.138Z,76.25
2022-12-13T04:06:47.889Z,76.22
2022-12-13T04:09:17.627Z,75.95
2022-12-13T04:12:05.190Z,76.56
2022-12-13T04:14:35.797Z,76.29
2022-12-13T04:17:05.537Z,77.34
2022-12-13T04:19:35.308Z,77.65
2022-12-13T04:22:06.614Z,77.31
2022-12-13T04:24:37.615Z,77.49
2022-12-13T04:27:07.658Z,76.88
2022-12-13T04:29:37.145Z,76.34
2022-12-13T04:32:25.969Z,76.38
2022-12-13T04:34:39.901Z,76.84
2022-12-13T04:37:10.704Z,76.55
2022-12-13T04:39:40.453Z,76.70
2022-12-13T04:42:12.026Z,76.77
2022-12-13T04:44:46.029Z,76.67
2022-12-13T04:47:13.212Z,76.38
2022-12-13T04:49:43.041Z,76.22
2022-12-13T04:52:12.839Z,77.28
2022-12-13T04:54:44.569Z,77.41
2022-12-13T04:57:14.769Z,77.21
2022-12-13T04:59:46.137Z,76.91
2022-12-13T05:02:23.364Z,77.45
2022-12-13T05:04:47.499Z,77.72
2022-12-13T05:07:18.952Z,77.69
2022-12-13T05:09:48.688Z,77.31
2022-12-13T05:12:22.513Z,77.08
2022-12-13T05:14:49.873Z,77.51
2022-12-13T05:17:19.429Z,78.07
2022-12-13T05:19:49.172Z,77.88
2022-12-13T05:22:20.840Z,77.80
2022-12-13T05:24:50.946Z,77.76
2022-12-13T05:27:24.007Z,77.50
2022-12-13T05:29:57.669Z,77.51
2022-12-13T05:32:23.459Z,77.79
2022-12-13T05:34:53.160Z,77.69
2022-12-13T05:37:22.908Z,77.60
2022-12-13T05:39:52.640Z,77.55
2022-12-13T05:42:22.220Z,77.07
2022-12-13T05:44:54.168Z,77.98
2022-12-13T05:47:23.936Z,78.31
2022-12-13T05:49:53.909Z,78.20
2022-12-13T05:52:30.364Z,78.20
2022-12-13T05:55:00.996Z,78.40
2022-12-13T05:57:30.585Z,78.40
2022-12-13T06:00:00.644Z,77.81
2022-12-13T06:02:30.557Z,77.83
2022-12-13T06:05:00.400Z,77.15
2022-12-13T06:07:30.145Z,77.40
2022-12-13T06:10:10.644Z,77.48
2022-12-13T06:12:32.729Z,77.46
2022-12-13T06:15:02.982Z,77.71
2022-12-13T06:17:36.931Z,77.28
2022-12-13T06:20:23.372Z,77.38
2022-12-13T06:22:40.143Z,78.03
2022-12-13T06:25:31.170Z,77.53
2022-12-13T06:27:41.758Z,77.20
2022-12-13T06:30:13.375Z,77.25
2022-12-13T06:32:44.095Z,77.19
2022-12-13T06:35:29.038Z,77.76
2022-12-13T06:37:45.159Z,77.62
2022-12-13T06:40:17.643Z,77.92
2022-12-13T06:42:46.428Z,78.30
2022-12-13T06:45:15.926Z,77.65
2022-12-13T06:47:46.023Z,77.84
2022-12-13T06:50:15.784Z,78.25
2022-12-13T06:52:47.508Z,78.80
2022-12-13T06:55:23.509Z,78.80
2022-12-13T06:57:49.215Z,78.64
2022-12-13T07:00:22.515Z,78.19
2022-12-13T07:02:55.681Z,78.55
2022-12-13T07:05:27.239Z,78.54
2022-12-13T07:07:57.039Z,77.75
2022-12-13T07:10:26.503Z,77.74
2022-12-13T07:12:56.553Z,78.45
2022-12-13T07:15:26.482Z,78.36
2022-12-13T07:17:56.277Z,78.78
2022-12-13T07:20:25.721Z,78.87
2022-12-13T07:22:58.821Z,79.02
2022-12-13T07:25:29.469Z,78.52
2022-12-13T07:28:02.866Z,78.93
2022-12-13T07:30:40.653Z,79.62
2022-12-13T07:33:07.900Z,79.48
2022-12-13T07:35:38.391Z,79.12
2022-12-13T07:38:11.373Z,80.06
2022-12-13T07:40:42.132Z,79.89
2022-12-13T07:43:12.026Z,80.01
2022-12-13T07:45:41.774Z,79.74
2022-12-13T07:48:11.594Z,79.00
2022-12-13T07:50:41.415Z,79.56
2022-12-13T07:53:11.534Z,79.51
2022-12-13T07:55:41.279Z,79.57
2022-12-13T07:58:14.007Z,79.59
2022-12-13T08:00:46.852Z,80.06
2022-12-13T08:03:24.404Z,80.56
2022-12-13T08:05:49.305Z,81.00
2022-12-13T08:08:20.754Z,81.13
2022-12-13T08:10:50.493Z,80.97
2022-12-13T08:13:20.933Z,80.71
2022-12-13T08:15:51.286Z,80.61
2022-12-13T08:18:20.987Z,81.06
2022-12-13T08:20:51.024Z,80.02
2022-12-13T08:23:21.033Z,80.02
2022-12-13T08:25:55.109Z,79.89
2022-12-13T08:28:26.062Z,80.74
2022-12-13T08:30:55.965Z,80.33
2022-12-13T08:33:25.698Z,80.04
2022-12-13T08:35:55.437Z,79.39
2022-12-13T08:38:25.529Z,78.75
2022-12-13T08:40:56.769Z,79.06
2022-12-13T08:43:26.578Z,79.65
2022-12-13T08:46:01.242Z,80.21
2022-12-13T08:48:28.289Z,79.73
2022-12-13T08:51:03.566Z,79.24
2022-12-13T08:53:40.822Z,79.02
2022-12-13T08:56:10.665Z,79.04
2022-12-13T08:58:41.065Z,78.97
2022-12-13T09:01:12.359Z,78.47
2022-12-13T09:03:42.153Z,78.24
2022-12-13T09:06:14.788Z,78.23
2022-12-13T09:08:51.753Z,77.61
2022-12-13T09:11:20.790Z,77.34
2022-12-13T09:13:48.777Z,77.49
2022-12-13T09:16:24.295Z,77.42
2022-12-13T09:18:56.202Z,76.80
2022-12-13T09:21:30.942Z,76.78
2022-12-13T09:24:01.762Z,76.71
2022-12-13T09:26:37.717Z,76.66
2022-12-13T09:29:10.533Z,76.25
2022-12-13T09:31:34.710Z,76.41
2022-12-13T09:34:06.399Z,75.66
2022-12-13T09:36:36.628Z,76.25
2022-12-13T09:39:06.827Z,75.67
2022-12-13T09:41:40.728Z,76.12
2022-12-13T09:44:32.968Z,75.92
2022-12-13T09:47:03.970Z,75.76
2022-12-13T09:49:38.590Z,75.36
2022-12-13T09:52:21.194Z,75.50
2022-12-13T09:54:49.221Z,75.24
2022-12-13T09:57:32.401Z,75.51
2022-12-13T09:59:58.648Z,75.51
2022-12-13T10:02:31.689Z,75.68
2022-12-13T10:05:34.287Z,76.06
2022-12-13T10:08:02.274Z,76.36
2022-12-13T10:10:31.949Z,75.64
2022-12-13T10:13:16.195Z,75.13
2022-12-13T10:15:49.064Z,75.53
2022-12-13T10:18:21.870Z,75.19
2022-12-13T10:20:51.964Z,75.18
2022-12-13T10:24:06.955Z,75.08
2022-12-13T10:26:03.331Z,75.38
2022-12-13T10:28:33.000Z,75.94
2022-12-13T10:31:03.425Z,75.94
2022-12-13T10:33:35.728Z,74.91
2022-12-13T10:36:11.090Z,74.52
2022-12-13T10:38:43.352Z,74.59
2022-12-13T10:41:38.551Z,74.44
2022-12-13T10:44:15.373Z,74.20
2022-12-13T10:46:50.868Z,74.13
2022-12-13T10:49:23.875Z,74.41
2022-12-13T10:51:54.730Z,73.42
2022-12-13T10:54:38.347Z,73.39
2022-12-13T10:57:04.471Z,72.89
2022-12-13T10:59:40.121Z,73.51
2022-12-13T11:02:36.263Z,73.55
2022-12-13T11:05:28.260Z,72.95
2022-12-13T11:08:01.118Z,73.05
2022-12-13T11:10:31.184Z,72.03
2022-12-13T11:13:06.288Z,72.76
2022-12-13T11:15:39.100Z,72.18
2022-12-13T11:18:14.064Z,72.53
2022-12-13T11:20:55.980Z,71.69
2022-12-13T11:23:34.286Z,71.09
2022-12-13T11:26:12.102Z,71.09
2022-12-13T11:28:47.819Z,70.41
2022-12-13T11:31:36.962Z,70.58
2022-12-13T11:34:22.717Z,71.42
2022-12-13T11:37:04.305Z,68.97
2022-12-13T11:39:39.888Z,70.94
2022-12-13T11:42:19.853Z,70.94
2022-12-13T11:44:58.481Z,71.95
2022-12-13T11:47:34.079Z,70.68
2022-12-13T11:50:08.329Z,68.99
2022-12-13T11:52:44.584Z,69.47
2022-12-13T11:55:22.654Z,70.57
2022-12-13T11:58:04.942Z,68.80
2022-12-13T12:00:49.284Z,68.64
2022-12-13T12:03:24.702Z,70.14
2022-12-13T12:06:11.960Z,71.13
2022-12-13T12:08:47.947Z,71.98
2022-12-13T12:11:38.891Z,70.25
2022-12-13T12:14:14.087Z,70.13
2022-12-13T12:16:56.225Z,70.81
2022-12-13T12:19:33.007Z,71.37
2022-12-13T12:22:17.231Z,70.32
2022-12-13T12:25:05.060Z,71.10
2022-12-13T12:27:37.831Z,71.55
2022-12-13T12:30:13.594Z,70.91
2022-12-13T12:32:45.513Z,70.56
2022-12-13T12:35:23.931Z,69.95
2022-12-13T12:38:05.609Z,69.01
2022-12-13T12:43:38.218Z,68.86
2022-12-13T12:46:38.449Z,67.97
2022-12-13T12:49:12.396Z,67.57
2022-12-13T12:51:57.576Z,68.15
2022-12-13T12:54:35.398Z,68.57
2022-12-13T12:57:19.699Z,67.98
2022-12-13T12:59:56.777Z,67.87
2022-12-13T13:02:29.053Z,67.04
2022-12-13T13:05:01.571Z,66.93
2022-12-13T13:07:40.061Z,67.56
2022-12-13T13:10:26.092Z,70.08
2022-12-13T13:12:43.318Z,70.54
2022-12-13T13:15:35.666Z,70.54
2022-12-13T13:18:28.033Z,68.99
2022-12-13T13:21:26.490Z,69.48
2022-12-13T13:24:11.268Z,71.05
2022-12-13T13:26:43.499Z,70.50
2022-12-13T13:29:28.737Z,69.65
2022-12-13T13:32:28.520Z,68.91
2022-12-13T13:34:48.184Z,69.40
2022-12-13T13:37:24.653Z,69.98
2022-12-13T13:40:00.066Z,69.86
2022-12-13T13:42:30.658Z,71.09
2022-12-13T13:45:23.558Z,71.02
2022-12-13T13:48:23.729Z,70.58
2022-12-13T13:50:57.040Z,69.96
2022-12-13T13:53:32.521Z,70.42
2022-12-13T13:56:05.009Z,70.87
2022-12-13T13:58:54.076Z,71.68
2022-12-13T14:01:45.949Z,71.68
2022-12-13T14:04:38.263Z,70.58
2022-12-13T14:07:18.868Z,71.86
2022-12-13T14:10:08.184Z,71.51
2022-12-13T14:13:06.249Z,71.39
2022-12-13T14:16:00.416Z,71.72
2022-12-13T14:18:50.975Z,72.97
2022-12-13T14:21:41.522Z,71.68
2022-12-13T14:24:23.163Z,71.60
2022-12-13T14:27:01.893Z,70.89
2022-12-13T14:29:37.606Z,70.74
2022-12-13T14:35:26.259Z,71.08
2022-12-13T14:37:39.736Z,70.83
2022-12-13T14:40:32.633Z,71.12
2022-12-13T14:43:02.530Z,71.37
2022-12-13T14:45:36.411Z,70.69
2022-12-13T14:48:28.682Z,71.35
2022-12-13T14:50:50.603Z,71.14
2022-12-13T14:53:26.752Z,70.96
2022-12-13T14:56:08.685Z,71.27
2022-12-13T14:58:39.486Z,71.49
2022-12-13T15:01:29.419Z,71.98
2022-12-13T15:04:22.628Z,71.71
2022-12-13T15:07:04.417Z,72.52
2022-12-13T15:09:40.150Z,71.43
2022-12-13T15:12:15.318Z,71.70
2022-12-13T15:14:46.918Z,71.20
2022-12-13T15:17:36.598Z,72.19
2022-12-13T15:20:30.859Z,72.24
2022-12-13T15:23:08.325Z,72.57
2022-12-13T15:25:39.618Z,71.54
2022-12-13T15:28:18.222Z,72.52
2022-12-13T15:30:45.165Z,72.52
2022-12-13T15:33:21.065Z,72.78
2022-12-13T15:35:53.402Z,72.84
2022-12-13T15:38:28.327Z,72.71
2022-12-13T15:40:54.957Z,73.19
2022-12-13T15:43:28.071Z,72.78
2022-12-13T15:45:58.084Z,73.69
2022-12-13T15:48:33.835Z,73.69
2022-12-13T15:51:28.727Z,73.12
2022-12-13T15:54:09.354Z,73.18
2022-12-13T15:56:44.108Z,73.28
2022-12-13T15:59:25.534Z,73.16
2022-12-13T16:01:58.423Z,73.73
2022-12-13T16:04:30.017Z,73.55
2022-12-13T16:07:01.649Z,72.98
2022-12-13T16:09:34.457Z,73.64
2022-12-13T16:12:07.869Z,73.67
2022-12-13T16:14:40.926Z,74.18
2022-12-13T16:17:24.902Z,73.60
2022-12-13T16:19:58.335Z,73.86
2022-12-13T16:22:27.849Z,73.86
2022-12-13T16:24:57.761Z,73.38
2022-12-13T16:27:27.501Z,73.30
2022-12-13T16:29:57.538Z,73.29
2022-12-13T16:32:27.235Z,73.41
2022-12-13T16:34:56.981Z,73.57
2022-12-13T16:37:27.620Z,73.78
2022-12-13T16:39:57.137Z,73.36
2022-12-13T16:42:27.324Z,73.40
2022-12-13T16:45:32.465Z,73.44
2022-12-13T16:47:41.790Z,73.96
2022-12-13T16:50:04.323Z,73.41
2022-12-13T16:52:34.069Z,73.35
2022-12-13T16:55:03.820Z,72.91
2022-12-13T16:57:33.612Z,73.09
2022-12-13T17:00:03.984Z,73.19
2022-12-13T17:02:33.793Z,72.65
2022-12-13T17:05:04.014Z,72.34
2022-12-13T17:07:35.332Z,72.66
2022-12-13T17:10:06.869Z,72.19
2022-12-13T17:12:36.688Z,71.66
2022-12-13T17:15:09.088Z,72.00
2022-12-13T17:17:40.541Z,71.46
2022-12-13T17:20:18.081Z,71.27
2022-12-13T17:22:48.039Z,70.42
2022-12-13T17:25:17.889Z,70.67
2022-12-13T17:27:47.644Z,70.87
2022-12-13T17:30:19.014Z,71.24
2022-12-13T17:32:48.835Z,70.79
2022-12-13T17:35:19.095Z,71.14
2022-12-13T17:37:48.911Z,71.67
2022-12-13T17:40:18.885Z,71.64
2022-12-13T17:42:52.502Z,71.87
2022-12-13T17:45:23.033Z,72.20
2022-12-13T17:47:52.778Z,72.20
2022-12-13T17:50:22.277Z,71.40
2022-12-13T17:52:52.012Z,71.50
2022-12-13T17:55:21.773Z,70.82
2022-12-13T17:57:51.818Z,70.87
2022-12-13T18:00:23.421Z,71.44
2022-12-13T18:02:55.433Z,71.64
2022-12-13T18:05:27.577Z,71.51
2022-12-13T18:07:57.616Z,70.99
2022-12-13T18:10:29.977Z,71.42
2022-12-13T18:12:58.941Z,71.84
2022-12-13T18:15:28.784Z,71.23
2022-12-13T18:18:11.329Z,71.44
2022-12-13T18:20:30.275Z,70.71
2022-12-13T18:23:00.019Z,71.16
2022-12-13T18:25:30.733Z,70.98
2022-12-13T18:28:01.304Z,71.46
2022-12-13T18:30:32.630Z,71.06
2022-12-13T18:33:02.677Z,70.97
2022-12-13T18:35:32.610Z,71.20
2022-12-13T18:38:02.332Z,72.41
2022-12-13T18:40:32.451Z,72.27
2022-12-13T18:43:02.261Z,71.79
2022-12-13T18:45:32.068Z,71.28
2022-12-13T18:48:01.882Z,71.06
2022-12-13T18:50:31.632Z,71.13
2022-12-13T18:53:01.139Z,71.36
2022-12-13T18:55:31.374Z,71.74
2022-12-13T18:58:01.109Z,71.74
2022-12-13T19:00:30.884Z,71.43
2022-12-13T19:03:01.344Z,71.70
2022-12-13T19:05:31.104Z,71.94
2022-12-13T19:08:00.844Z,71.73
2022-12-13T19:10:30.630Z,72.02
2022-12-13T19:13:00.888Z,72.06
2022-12-13T19:15:30.698Z,72.44
2022-12-13T19:18:00.469Z,72.60
2022-12-13T19:20:31.022Z,71.72
2022-12-13T19:23:00.756Z,71.94
2022-12-13T19:25:30.500Z,71.79
2022-12-13T19:28:00.274Z,72.42
2022-12-13T19:30:29.791Z,72.52
2022-12-13T19:32:59.837Z,72.47
2022-12-13T19:35:29.885Z,72.47
2022-12-13T19:38:00.103Z,71.78
2022-12-13T19:40:29.929Z,72.19
2022-12-13T19:42:59.663Z,72.21
2022-12-13T19:45:29.411Z,72.14
2022-12-13T19:47:59.465Z,71.44
2022-12-13T19:50:30.249Z,71.52
2022-12-13T19:53:00.073Z,71.84
2022-12-13T19:55:29.813Z,71.54
2022-12-13T19:58:00.705Z,72.15
2022-12-13T20:00:30.544Z,71.62
2022-12-13T20:03:00.314Z,71.98
2022-12-13T20:05:30.061Z,71.81
2022-12-13T20:08:00.359Z,71.56
2022-12-13T20:10:30.132Z,71.34
2022-12-13T20:13:00.235Z,71.85
2022-12-13T20:15:30.648Z,71.33
2022-12-13T20:18:00.936Z,70.92
2022-12-13T20:20:47.039Z,71.92
2022-12-13T20:23:02.428Z,71.85
2022-12-13T20:25:32.178Z,71.11
2022-12-13T20:28:01.926Z,71.08
2022-12-13T20:30:32.850Z,71.40
2022-12-13T20:33:02.691Z,71.19
2022-12-13T20:35:32.428Z,72.35
2022-12-13T20:38:03.342Z,71.57
2022-12-13T20:40:33.655Z,71.57
2022-12-13T20:43:03.396Z,71.05
2022-12-13T20:45:33.772Z,71.54
2022-12-13T20:48:03.530Z,71.13
2022-12-13T20:50:32.963Z,71.90
2022-12-13T20:53:03.012Z,71.65
2022-12-13T20:55:35.345Z,71.13
2022-12-13T20:58:06.368Z,71.15
2022-12-13T21:00:36.200Z,71.15
2022-12-13T21:03:06.007Z,71.29
2022-12-13T21:05:35.743Z,71.13
2022-12-13T21:08:24.614Z,70.65
2022-12-13T21:11:04.929Z,71.46
2022-12-13T21:13:29.718Z,71.47
2022-12-13T21:16:02.491Z,70.73
2022-12-13T21:18:32.294Z,70.41
2022-12-13T21:21:02.111Z,70.39
2022-12-13T21:23:31.915Z,70.68
2022-12-13T21:26:01.681Z,70.09
2022-12-13T21:28:32.005Z,70.09
2022-12-13T21:31:04.556Z,70.51
2022-12-13T21:33:35.629Z,70.71
2022-12-13T21:36:16.676Z,70.35
2022-12-13T21:38:46.425Z,70.17
2022-12-13T21:41:16.323Z,70.12
2022-12-13T21:43:48.267Z,69.61
2022-12-13T21:46:19.859Z,69.31
2022-12-13T21:48:50.928Z,69.11
2022-12-13T21:51:23.512Z,69.40
2022-12-13T21:53:54.699Z,68.98
2022-12-13T21:56:44.687Z,69.12
2022-12-13T21:59:20.669Z,69.20
2022-12-13T22:02:12.774Z,69.37
2022-12-13T22:04:48.485Z,69.36
2022-12-13T22:07:20.503Z,68.47
2022-12-13T22:09:51.507Z,69.27
2022-12-13T22:12:29.922Z,68.89
2022-12-13T22:14:59.725Z,68.56
2022-12-13T22:17:35.192Z,68.15
2022-12-13T22:20:02.332Z,68.20
2022-12-13T22:22:33.478Z,68.38
2022-12-13T22:25:04.050Z,68.18
2022-12-13T22:27:33.811Z,67.97
2022-12-13T22:30:03.561Z,68.26
2022-12-13T22:32:33.876Z,68.17
2022-12-13T22:35:04.725Z,68.81
2022-12-13T22:37:34.794Z,69.30
2022-12-13T22:40:07.841Z,70.43
2022-12-13T22:42:37.637Z,70.19
2022-12-13T22:45:08.776Z,70.70
2022-12-13T22:47:38.519Z,70.70
2022-12-13T22:50:11.600Z,70.09
2022-12-13T22:52:41.321Z,70.60
2022-12-13T22:55:10.979Z,71.13
2022-12-13T22:57:40.715Z,70.50
2022-12-13T23:00:13.013Z,70.54
2022-12-13T23:02:42.817Z,71.01
2022-12-13T23:05:12.580Z,70.85
2022-12-13T23:07:42.344Z,70.43
2022-12-13T23:10:15.108Z,70.22
2022-12-13T23:13:03.243Z,70.38
2022-12-13T23:15:34.484Z,70.20
2022-12-13T23:18:04.310Z,69.87
2022-12-13T23:20:35.240Z,70.09
2022-12-13T23:23:05.077Z,69.85
2022-12-13T23:25:34.822Z,69.85
2022-12-13T23:28:04.851Z,69.21
2022-12-13T23:30:34.383Z,69.05
2022-12-13T23:33:04.193Z,69.67
2022-12-13T23:35:34.008Z,69.67
2022-12-13T23:38:03.752Z,69.39
2022-12-13T23:40:33.513Z,69.33
2022-12-13T23:43:03.000Z,68.58
2022-12-13T23:45:32.749Z,68.99
2022-12-13T23:48:02.481Z,67.77
2022-12-13T23:50:31.935Z,67.77
2022-12-13T23:53:01.658Z,67.22
2022-12-13T23:55:31.394Z,67.38
2022-12-13T23:58:01.153Z,67.74
